Oconto, Wisconsin
Current Conditions -  °F | °C
As of 10:55 PM on Monday 22 Dec 2014 (Local Time) from KOCQ Reporting Station
Overcast Overcast  
Wind Chill: 27°   Ceiling: 400
Heat Index: 33°   Visibility: 2.5mi
Dew Point: 33°   Wind: 7mph
Humidity: 100%   Direction: 70°ENE
Pressure: 29.76"   Gusts: NA
Location:  44.89°N, 87.86°W
Report Text: KOCQ 230455Z AUTO 07006KT 2 1/2SM OVC004 01/01 A2976 RMK AO1 P0005 T00050005
Loading
Personal Weather Stations






























Interactive Weather Map New forecast layout! Learn more

10-Day Weather Forecast

Advertisements
Track Severe Weather on mobile